createdAt,value
2022-12-07T00:01:13.201Z,12.52
2022-12-07T00:03:41.694Z,13.25
2022-12-07T00:06:09.896Z,12.43
2022-12-07T00:08:36.770Z,12.25
2022-12-07T00:11:08.591Z,12.23
2022-12-07T00:13:36.196Z,12.13
2022-12-07T00:16:08.198Z,12.65
2022-12-07T00:18:35.126Z,11.30
2022-12-07T00:21:06.252Z,11.75
2022-12-07T00:23:34.219Z,12.50
2022-12-07T00:26:13.280Z,11.23
2022-12-07T00:28:40.203Z,10.95
2022-12-07T00:31:09.765Z,11.30
2022-12-07T00:33:37.362Z,11.45
2022-12-07T00:36:10.642Z,10.80
2022-12-07T00:38:38.972Z,11.88
2022-12-07T00:41:14.408Z,10.88
2022-12-07T00:43:42.775Z,11.13
2022-12-07T00:46:09.471Z,11.32
2022-12-07T00:48:38.260Z,11.13
2022-12-07T00:51:05.781Z,10.93
2022-12-07T00:53:40.922Z,10.75
2022-12-07T00:56:14.163Z,9.32
2022-12-07T00:58:41.085Z,9.82
2022-12-07T01:01:09.689Z,9.20
2022-12-07T01:03:37.178Z,11.77
2022-12-07T01:06:04.531Z,10.00
2022-12-07T01:08:31.379Z,9.48
2022-12-07T01:11:07.372Z,9.73
2022-12-07T01:13:35.423Z,10.23
2022-12-07T01:16:04.540Z,9.73
2022-12-07T01:18:33.313Z,10.95
2022-12-07T01:21:04.393Z,10.70
2022-12-07T01:23:32.031Z,9.50
2022-12-07T01:25:59.592Z,7.53
2022-12-07T01:28:26.476Z,7.90
2022-12-07T01:31:09.349Z,8.15
2022-12-07T01:33:38.072Z,8.10
2022-12-07T01:36:16.384Z,7.60
2022-12-07T01:38:43.837Z,7.40
2022-12-07T01:41:10.566Z,7.88
2022-12-07T01:43:37.187Z,7.50
2022-12-07T01:46:05.188Z,7.22
2022-12-07T01:48:41.048Z,7.78
2022-12-07T01:51:13.488Z,7.53
2022-12-07T01:53:44.778Z,7.10
2022-12-07T01:56:18.150Z,7.45
2022-12-07T01:58:45.890Z,6.65
2022-12-07T02:01:12.860Z,6.60
2022-12-07T02:03:42.360Z,6.50
2022-12-07T02:06:11.080Z,6.85
2022-12-07T02:08:37.535Z,6.18
2022-12-07T02:11:06.198Z,6.20
2022-12-07T02:13:35.289Z,5.82
2022-12-07T02:16:19.366Z,5.60
2022-12-07T02:18:51.040Z,5.65
2022-12-07T02:21:23.353Z,6.25
2022-12-07T02:24:17.416Z,5.55
2022-12-07T02:26:50.053Z,5.55
2022-12-07T02:29:48.060Z,5.40
2022-12-07T02:32:21.742Z,6.15
2022-12-07T02:35:10.800Z,5.82
2022-12-07T02:37:49.416Z,6.20
2022-12-07T02:40:22.999Z,6.13
2022-12-07T02:43:02.717Z,5.97
2022-12-07T02:45:31.994Z,7.03
2022-12-07T02:48:01.163Z,6.30
2022-12-07T02:50:28.547Z,6.18
2022-12-07T02:52:55.237Z,6.50
2022-12-07T02:55:39.604Z,6.43
2022-12-07T02:58:30.430Z,6.75
2022-12-07T03:01:33.880Z,7.00
2022-12-07T03:04:25.573Z,7.28
2022-12-07T03:07:01.610Z,6.65
2022-12-07T03:09:39.000Z,6.60
2022-12-07T03:12:19.179Z,7.10
2022-12-07T03:15:02.013Z,7.47
2022-12-07T03:17:34.133Z,7.28
2022-12-07T03:20:05.467Z,7.22
2022-12-07T03:22:35.291Z,7.20
2022-12-07T03:25:07.097Z,7.53
2022-12-07T03:27:43.354Z,8.45
2022-12-07T03:30:16.016Z,8.10
2022-12-07T03:33:00.000Z,6.82
2022-12-07T03:35:32.614Z,6.83
2022-12-07T03:38:05.529Z,7.35
2022-12-07T03:40:41.120Z,7.70
2022-12-07T03:43:08.409Z,9.82
2022-12-07T03:45:44.586Z,7.97
2022-12-07T03:48:21.176Z,9.47
2022-12-07T03:51:02.254Z,11.75
2022-12-07T03:53:38.263Z,8.35
2022-12-07T03:56:05.624Z,8.10
2022-12-07T03:58:33.334Z,9.95
2022-12-07T04:00:59.820Z,7.87
2022-12-07T04:03:26.314Z,7.93
2022-12-07T04:05:52.963Z,7.93
2022-12-07T04:08:19.437Z,8.70
2022-12-07T04:10:46.086Z,9.23
2022-12-07T04:13:12.534Z,9.37
2022-12-07T04:15:39.046Z,9.23
2022-12-07T04:18:05.611Z,9.00
2022-12-07T04:20:32.287Z,9.68
2022-12-07T04:22:58.678Z,8.93
2022-12-07T04:25:25.177Z,9.77
2022-12-07T04:27:51.685Z,9.02
2022-12-07T04:30:18.243Z,8.68
2022-12-07T04:32:44.719Z,8.90
2022-12-07T04:35:11.176Z,9.15
2022-12-07T04:37:40.070Z,8.83
2022-12-07T04:40:12.289Z,8.95
2022-12-07T04:42:39.153Z,8.15
2022-12-07T04:45:06.224Z,8.77
2022-12-07T04:47:32.714Z,7.93
2022-12-07T04:49:59.299Z,8.03
2022-12-07T04:52:25.839Z,8.55
2022-12-07T04:54:52.301Z,10.02
2022-12-07T04:57:18.724Z,8.90
2022-12-07T04:59:45.951Z,8.30
2022-12-07T05:02:12.731Z,8.97
2022-12-07T05:04:39.204Z,10.15
2022-12-07T05:07:05.625Z,9.25
2022-12-07T05:09:32.221Z,9.55
2022-12-07T05:11:58.624Z,9.43
2022-12-07T05:14:25.270Z,9.47
2022-12-07T05:16:52.133Z,8.88
2022-12-07T05:19:19.793Z,10.77
2022-12-07T05:21:47.088Z,12.40
2022-12-07T05:24:15.940Z,11.25
2022-12-07T05:26:43.115Z,10.07
2022-12-07T05:29:13.388Z,10.07
2022-12-07T05:31:39.974Z,10.50
2022-12-07T05:34:06.516Z,10.10
2022-12-07T05:36:33.093Z,9.95
2022-12-07T05:39:00.227Z,10.80
2022-12-07T05:41:45.575Z,9.65
2022-12-07T05:44:12.181Z,11.27
2022-12-07T05:46:38.679Z,11.88
2022-12-07T05:49:05.207Z,10.73
2022-12-07T05:51:31.810Z,10.20
2022-12-07T05:53:58.454Z,9.73
2022-12-07T05:56:25.348Z,10.43
2022-12-07T05:59:10.548Z,10.70
2022-12-07T06:01:37.013Z,10.38
2022-12-07T06:04:03.465Z,10.50
2022-12-07T06:06:30.064Z,10.68
2022-12-07T06:08:56.700Z,9.60
2022-12-07T06:11:41.589Z,9.05
2022-12-07T06:14:08.235Z,9.43
2022-12-07T06:16:34.843Z,12.90
2022-12-07T06:19:01.484Z,10.77
2022-12-07T06:21:28.018Z,9.70
2022-12-07T06:23:54.961Z,9.32
2022-12-07T06:26:22.074Z,8.98
2022-12-07T06:28:48.566Z,8.60
2022-12-07T06:31:15.497Z,8.50
2022-12-07T06:33:42.506Z,8.88
2022-12-07T06:36:10.210Z,8.02
2022-12-07T06:38:37.118Z,8.27
2022-12-07T06:41:03.743Z,8.70
2022-12-07T06:43:30.884Z,9.00
2022-12-07T06:45:57.459Z,9.35
2022-12-07T06:48:23.930Z,9.68
2022-12-07T06:50:54.748Z,10.35
2022-12-07T06:53:22.332Z,10.23
2022-12-07T06:55:48.732Z,10.18
2022-12-07T06:58:15.299Z,10.20
2022-12-07T07:00:42.025Z,9.85
2022-12-07T07:03:08.599Z,10.10
2022-12-07T07:05:35.209Z,9.20
2022-12-07T07:10:48.428Z,11.65
2022-12-07T07:13:15.082Z,8.55
2022-12-07T07:15:41.560Z,9.40
2022-12-07T07:18:08.249Z,9.63
2022-12-07T07:20:35.288Z,10.23
2022-12-07T07:23:02.099Z,9.13
2022-12-07T07:25:28.609Z,8.23
2022-12-07T07:27:55.261Z,8.80
2022-12-07T07:30:21.839Z,8.20
2022-12-07T07:32:48.390Z,8.60
2022-12-07T07:35:15.167Z,8.57
2022-12-07T07:37:42.246Z,9.35
2022-12-07T07:40:12.724Z,8.55
2022-12-07T07:42:39.291Z,8.60
2022-12-07T07:45:06.308Z,7.93
2022-12-07T07:47:32.856Z,9.52
2022-12-07T07:49:59.508Z,8.38
2022-12-07T07:52:26.364Z,8.15
2022-12-07T07:54:52.840Z,8.40
2022-12-07T07:57:19.324Z,8.20
2022-12-07T07:59:45.755Z,8.35
2022-12-07T08:02:18.189Z,8.70
2022-12-07T08:04:45.970Z,8.95
2022-12-07T08:07:14.226Z,8.23
2022-12-07T08:09:41.395Z,8.38
2022-12-07T08:12:08.375Z,8.32
2022-12-07T08:14:35.447Z,8.32
2022-12-07T08:17:02.164Z,6.82
2022-12-07T08:19:28.641Z,7.23
2022-12-07T08:22:07.088Z,6.75
2022-12-07T08:24:35.871Z,6.93
2022-12-07T08:27:06.743Z,6.70
2022-12-07T08:29:33.336Z,6.15
2022-12-07T08:32:04.200Z,6.03
2022-12-07T08:34:34.545Z,5.60
2022-12-07T08:37:01.918Z,6.22
2022-12-07T08:39:32.552Z,5.50
2022-12-07T08:42:02.467Z,5.60
2022-12-07T08:44:28.932Z,5.27
2022-12-07T08:47:00.617Z,5.30
2022-12-07T08:49:33.094Z,5.68
2022-12-07T08:51:59.575Z,5.85
2022-12-07T08:54:26.750Z,4.75
2022-12-07T08:56:59.374Z,4.67
2022-12-07T08:59:27.271Z,5.60
2022-12-07T09:01:53.984Z,5.50
2022-12-07T09:04:21.565Z,5.38
2022-12-07T09:06:51.349Z,5.43
2022-12-07T09:09:17.912Z,6.37
2022-12-07T09:11:46.331Z,5.30
2022-12-07T09:14:13.409Z,5.32
2022-12-07T09:16:40.360Z,6.03
2022-12-07T09:19:09.241Z,5.45
2022-12-07T09:21:35.876Z,4.93
2022-12-07T09:24:02.735Z,5.05
2022-12-07T09:26:29.218Z,4.93
2022-12-07T09:28:55.749Z,4.80
2022-12-07T09:31:24.501Z,4.53
2022-12-07T09:34:00.321Z,4.40
2022-12-07T09:36:28.195Z,4.20
2022-12-07T09:38:54.797Z,4.55
2022-12-07T09:41:24.002Z,4.20
2022-12-07T09:43:54.278Z,3.85
2022-12-07T09:46:21.819Z,4.13
2022-12-07T09:48:50.882Z,4.10
2022-12-07T09:51:24.996Z,4.90
2022-12-07T09:53:54.656Z,4.53
2022-12-07T09:56:22.935Z,5.55
2022-12-07T09:58:50.637Z,5.00
2022-12-07T10:01:22.561Z,5.30
2022-12-07T10:04:17.853Z,7.00
2022-12-07T10:06:44.646Z,5.85
2022-12-07T10:09:16.744Z,7.30
2022-12-07T10:12:03.394Z,5.87
2022-12-07T10:17:41.780Z,8.65
2022-12-07T10:20:28.771Z,6.13
2022-12-07T10:23:01.283Z,7.78
2022-12-07T10:25:36.998Z,6.10
2022-12-07T10:28:13.291Z,5.00
2022-12-07T10:30:53.838Z,4.85
2022-12-07T10:33:33.663Z,4.85
2022-12-07T10:36:01.975Z,4.50
2022-12-07T10:38:31.263Z,4.00
2022-12-07T10:41:06.537Z,3.80
2022-12-07T10:43:33.763Z,3.63
2022-12-07T10:46:18.200Z,3.70
2022-12-07T10:49:26.352Z,4.00
2022-12-07T10:52:22.149Z,3.57
2022-12-07T10:55:15.054Z,3.50
2022-12-07T10:57:56.387Z,4.10
2022-12-07T11:00:29.415Z,5.97
2022-12-07T11:03:33.802Z,4.63
2022-12-07T11:06:15.511Z,4.23
2022-12-07T11:09:03.550Z,4.28
2022-12-07T11:11:39.179Z,4.90
2022-12-07T11:14:24.719Z,4.65
2022-12-07T11:16:58.109Z,4.80
2022-12-07T11:19:42.950Z,4.53
2022-12-07T11:22:19.244Z,4.10
2022-12-07T11:24:57.499Z,4.40
2022-12-07T11:28:02.009Z,4.40
2022-12-07T11:30:35.888Z,3.97
2022-12-07T11:33:02.328Z,3.73
2022-12-07T11:35:37.502Z,4.20
2022-12-07T11:38:18.903Z,4.30
2022-12-07T11:40:55.509Z,4.20
2022-12-07T11:43:29.617Z,4.20
2022-12-07T11:46:03.627Z,3.90
2022-12-07T11:48:39.194Z,4.18
2022-12-07T11:51:10.768Z,4.30
2022-12-07T11:53:46.614Z,4.18
2022-12-07T11:56:20.278Z,4.78
2022-12-07T11:58:49.893Z,10.43
2022-12-07T12:01:32.149Z,7.55
2022-12-07T12:04:10.724Z,4.88
2022-12-07T12:06:39.136Z,4.63
2022-12-07T12:09:41.026Z,4.45
2022-12-07T12:15:43.761Z,3.55
2022-12-07T12:18:37.884Z,3.83
2022-12-07T12:21:19.510Z,4.10
2022-12-07T12:23:56.950Z,3.95
2022-12-07T12:26:26.873Z,4.40
2022-12-07T12:29:01.523Z,4.88
2022-12-07T12:31:28.444Z,4.50
2022-12-07T12:34:04.056Z,3.08
2022-12-07T12:36:43.729Z,3.38
2022-12-07T12:39:20.178Z,3.00
2022-12-07T12:41:49.356Z,3.20
2022-12-07T12:44:15.784Z,3.50
2022-12-07T12:47:02.872Z,3.50
2022-12-07T12:49:29.259Z,3.78
2022-12-07T12:52:17.614Z,3.13
2022-12-07T12:55:13.391Z,3.03
2022-12-07T12:57:40.082Z,3.05
2022-12-07T13:00:18.677Z,3.25
2022-12-07T13:02:56.733Z,3.63
2022-12-07T13:05:33.196Z,3.50
2022-12-07T13:08:22.522Z,3.70
2022-12-07T13:10:49.504Z,4.50
2022-12-07T13:13:16.057Z,10.55
2022-12-07T13:15:52.359Z,11.27
2022-12-07T13:18:24.540Z,4.33
2022-12-07T13:20:57.866Z,4.20
2022-12-07T13:23:34.055Z,4.93
2022-12-07T13:26:20.720Z,6.78
2022-12-07T13:28:53.243Z,4.32
2022-12-07T13:31:38.297Z,3.50
2022-12-07T13:34:26.310Z,3.83
2022-12-07T13:36:53.009Z,3.92
2022-12-07T13:39:23.597Z,4.20
2022-12-07T13:41:52.967Z,4.00
2022-12-07T13:44:20.722Z,3.50
2022-12-07T13:47:10.832Z,3.55
2022-12-07T13:49:53.465Z,3.67
2022-12-07T13:52:28.404Z,3.42
2022-12-07T13:55:05.508Z,3.10
2022-12-07T13:57:36.097Z,3.10
2022-12-07T14:00:05.730Z,3.10
2022-12-07T14:02:36.390Z,3.25
2022-12-07T14:05:15.757Z,4.25
2022-12-07T14:08:11.328Z,3.40
2022-12-07T14:10:55.829Z,3.20
2022-12-07T14:13:28.965Z,2.70
2022-12-07T14:15:55.850Z,3.53
2022-12-07T14:18:30.906Z,3.58
2022-12-07T14:21:33.696Z,3.60
2022-12-07T14:24:13.075Z,3.30
2022-12-07T14:26:41.530Z,3.75
2022-12-07T14:29:27.305Z,3.40
2022-12-07T14:31:55.396Z,3.20
2022-12-07T14:34:23.022Z,3.13
2022-12-07T14:36:49.639Z,3.63
2022-12-07T14:39:16.237Z,4.10
2022-12-07T14:41:52.130Z,3.83
2022-12-07T14:44:24.062Z,3.67
2022-12-07T14:49:39.451Z,3.70
2022-12-07T14:54:59.279Z,3.95
2022-12-07T14:57:25.787Z,3.90
2022-12-07T14:59:52.233Z,3.95
2022-12-07T15:02:18.699Z,4.00
2022-12-07T15:04:45.407Z,4.18
2022-12-07T15:07:20.839Z,4.30
2022-12-07T15:09:48.240Z,4.30
2022-12-07T15:12:14.883Z,4.57
2022-12-07T15:14:41.381Z,4.30
2022-12-07T15:17:23.084Z,4.70
2022-12-07T15:19:52.658Z,5.72
2022-12-07T15:22:19.147Z,5.68
2022-12-07T15:24:45.687Z,5.10
2022-12-07T15:27:12.214Z,4.53
2022-12-07T15:29:38.673Z,6.35
2022-12-07T15:32:05.359Z,6.10
2022-12-07T15:34:39.663Z,3.90
2022-12-07T15:37:07.804Z,3.58
2022-12-07T15:39:34.562Z,3.27
2022-12-07T15:42:01.464Z,3.50
2022-12-07T15:44:46.384Z,4.32
2022-12-07T15:47:12.847Z,4.45
2022-12-07T15:49:39.294Z,4.72
2022-12-07T15:52:05.753Z,11.47
2022-12-07T15:54:33.385Z,7.32
2022-12-07T15:57:00.072Z,4.72
2022-12-07T15:59:28.331Z,4.13
2022-12-07T16:01:55.470Z,4.00
2022-12-07T16:04:22.221Z,4.20
2022-12-07T16:06:48.697Z,4.00
2022-12-07T16:09:15.225Z,3.50
2022-12-07T16:11:41.765Z,3.60
2022-12-07T16:14:08.337Z,4.15
2022-12-07T16:16:35.049Z,3.80
2022-12-07T16:19:01.542Z,4.35
2022-12-07T16:21:27.950Z,15.18
2022-12-07T16:23:54.621Z,11.95
2022-12-07T16:26:22.998Z,6.53
2022-12-07T16:28:51.490Z,6.10
2022-12-07T16:31:20.450Z,4.88
2022-12-07T16:33:47.050Z,4.20
2022-12-07T16:36:15.331Z,4.13
2022-12-07T16:38:41.860Z,4.35
2022-12-07T16:41:09.398Z,4.00
2022-12-07T16:43:36.726Z,6.43
2022-12-07T16:46:04.465Z,8.18
2022-12-07T16:48:31.475Z,7.43
2022-12-07T16:50:58.234Z,4.20
2022-12-07T16:53:25.327Z,4.33
2022-12-07T16:55:52.293Z,4.40
2022-12-07T16:58:18.978Z,4.50
2022-12-07T17:00:46.331Z,4.60
2022-12-07T17:03:19.093Z,4.57
2022-12-07T17:05:47.694Z,5.20
2022-12-07T17:08:14.784Z,5.78
2022-12-07T17:10:45.633Z,8.63
2022-12-07T17:13:31.122Z,5.50
2022-12-07T17:16:03.586Z,6.68
2022-12-07T17:18:34.389Z,9.17
2022-12-07T17:21:09.796Z,6.32
2022-12-07T17:23:37.192Z,7.75
2022-12-07T17:26:18.348Z,6.05
2022-12-07T17:28:45.341Z,7.28
2022-12-07T17:31:18.213Z,6.23
2022-12-07T17:33:44.901Z,6.07
2022-12-07T17:36:16.180Z,5.45
2022-12-07T17:38:42.705Z,5.18
2022-12-07T17:41:13.813Z,4.60
2022-12-07T17:43:40.346Z,4.83
2022-12-07T17:46:09.098Z,4.55
2022-12-07T17:48:36.533Z,5.25
2022-12-07T17:51:21.771Z,4.95
2022-12-07T17:53:51.694Z,5.30
2022-12-07T17:56:28.662Z,9.97
2022-12-07T17:58:55.735Z,10.32
2022-12-07T18:01:24.344Z,6.38
2022-12-07T18:03:51.593Z,5.93
2022-12-07T18:06:18.150Z,4.57
2022-12-07T18:08:44.604Z,9.40
2022-12-07T18:11:11.617Z,9.65
2022-12-07T18:13:38.306Z,10.90
2022-12-07T18:16:19.172Z,8.23
2022-12-07T18:18:52.328Z,5.60
2022-12-07T18:21:23.271Z,5.23
2022-12-07T18:23:54.515Z,4.75
2022-12-07T18:26:23.668Z,4.50
2022-12-07T18:28:50.271Z,5.20
2022-12-07T18:31:16.861Z,5.25
2022-12-07T18:33:45.387Z,5.40
2022-12-07T18:36:12.605Z,4.72
2022-12-07T18:38:39.590Z,5.30
2022-12-07T18:41:14.334Z,5.75
2022-12-07T18:43:42.250Z,8.60
2022-12-07T18:46:35.395Z,7.20
2022-12-07T18:49:03.492Z,8.02
2022-12-07T18:51:32.433Z,6.63
2022-12-07T18:54:01.260Z,6.80
2022-12-07T18:56:28.968Z,6.80
2022-12-07T18:59:18.661Z,5.80
2022-12-07T19:01:49.002Z,6.43
2022-12-07T19:04:16.376Z,7.10
2022-12-07T19:06:44.338Z,6.18
2022-12-07T19:09:11.688Z,4.88
2022-12-07T19:11:50.602Z,4.83
2022-12-07T19:14:31.951Z,5.35
2022-12-07T19:17:07.480Z,9.95
2022-12-07T19:19:39.776Z,13.10
2022-12-07T19:22:07.983Z,11.52
2022-12-07T19:24:34.583Z,7.03
2022-12-07T19:27:01.637Z,7.40
2022-12-07T19:29:33.781Z,9.93
2022-12-07T19:32:02.317Z,6.70
2022-12-07T19:34:28.935Z,9.18
2022-12-07T19:36:55.476Z,7.57
2022-12-07T19:39:22.135Z,6.00
2022-12-07T19:41:48.700Z,6.43
2022-12-07T19:44:21.184Z,7.20
2022-12-07T19:46:52.531Z,9.13
2022-12-07T19:49:20.281Z,7.53
2022-12-07T19:51:49.740Z,8.48
2022-12-07T19:54:18.906Z,6.50
2022-12-07T19:56:46.160Z,4.78
2022-12-07T19:59:14.465Z,6.25
2022-12-07T20:01:42.241Z,5.00
2022-12-07T20:04:16.619Z,5.10
2022-12-07T20:06:44.270Z,4.25
2022-12-07T20:09:10.755Z,4.05
2022-12-07T20:11:56.172Z,4.38
2022-12-07T20:14:23.485Z,4.40
2022-12-07T20:16:50.337Z,5.20
2022-12-07T20:19:17.691Z,5.40
2022-12-07T20:21:45.795Z,4.90
2022-12-07T20:24:17.543Z,5.63
2022-12-07T20:26:45.777Z,4.77
2022-12-07T20:29:18.215Z,4.35
2022-12-07T20:31:46.213Z,4.40
2022-12-07T20:34:13.268Z,5.38
2022-12-07T20:36:40.087Z,5.07
2022-12-07T20:39:07.763Z,4.43
2022-12-07T20:41:53.915Z,7.40
2022-12-07T20:44:20.438Z,10.02
2022-12-07T20:46:47.478Z,7.28
2022-12-07T20:49:16.664Z,5.95
2022-12-07T20:51:43.586Z,6.27
2022-12-07T20:54:10.295Z,7.00
2022-12-07T20:56:37.222Z,5.93
2022-12-07T20:59:06.541Z,5.32
2022-12-07T21:01:33.267Z,5.90
2022-12-07T21:04:01.329Z,5.80
2022-12-07T21:06:29.275Z,5.65
2022-12-07T21:08:58.236Z,6.07
2022-12-07T21:11:29.173Z,6.45
2022-12-07T21:13:55.611Z,5.93
2022-12-07T21:16:24.698Z,5.60
2022-12-07T21:18:52.173Z,5.53
2022-12-07T21:21:20.267Z,5.25
2022-12-07T21:23:49.068Z,4.95
2022-12-07T21:26:19.177Z,13.40
2022-12-07T21:28:46.213Z,9.50
2022-12-07T21:31:14.228Z,7.18
2022-12-07T21:33:44.025Z,7.20
2022-12-07T21:36:13.002Z,7.57
2022-12-07T21:38:39.526Z,9.50
2022-12-07T21:41:35.677Z,10.20
2022-12-07T21:44:06.245Z,8.77
2022-12-07T21:46:34.453Z,6.57
2022-12-07T21:49:04.181Z,14.68
2022-12-07T21:51:31.149Z,6.65
2022-12-07T21:53:59.416Z,6.70
2022-12-07T21:56:35.735Z,6.18
2022-12-07T21:59:06.570Z,8.85
2022-12-07T22:01:35.609Z,7.55
2022-12-07T22:04:02.367Z,7.75
2022-12-07T22:06:28.902Z,7.50
2022-12-07T22:08:56.090Z,7.10
2022-12-07T22:11:22.717Z,7.18
2022-12-07T22:14:12.292Z,5.57
2022-12-07T22:16:39.320Z,7.63
2022-12-07T22:19:07.491Z,9.03
2022-12-07T22:21:37.059Z,10.40
2022-12-07T22:24:04.621Z,8.73
2022-12-07T22:26:32.033Z,9.70
2022-12-07T22:29:00.973Z,6.95
2022-12-07T22:31:27.911Z,7.53
2022-12-07T22:33:54.672Z,6.53
2022-12-07T22:36:21.145Z,7.00
2022-12-07T22:38:47.658Z,7.03
2022-12-07T22:41:23.374Z,7.22
2022-12-07T22:43:51.961Z,7.10
2022-12-07T22:46:18.533Z,7.43
2022-12-07T22:48:45.040Z,7.25
2022-12-07T22:51:22.106Z,6.68
2022-12-07T22:53:48.893Z,7.13
2022-12-07T22:56:15.451Z,6.80
2022-12-07T22:58:42.432Z,6.13
2022-12-07T23:01:13.126Z,7.45
2022-12-07T23:03:40.148Z,6.63
2022-12-07T23:06:18.567Z,6.85
2022-12-07T23:08:45.680Z,8.23
2022-12-07T23:11:38.487Z,8.40
2022-12-07T23:14:09.721Z,6.47
2022-12-07T23:16:36.455Z,6.70
2022-12-07T23:19:03.269Z,6.97
2022-12-07T23:21:29.700Z,6.13
2022-12-07T23:23:56.238Z,5.85
2022-12-07T23:26:22.788Z,6.63
2022-12-07T23:28:49.301Z,5.60
2022-12-07T23:31:18.000Z,6.50
2022-12-07T23:33:44.566Z,5.47
2022-12-07T23:36:13.192Z,5.70
2022-12-07T23:38:41.074Z,5.68
2022-12-07T23:41:10.169Z,5.68
2022-12-07T23:43:39.138Z,5.68
2022-12-07T23:46:11.610Z,5.53
2022-12-07T23:48:38.999Z,5.70
2022-12-07T23:51:06.793Z,5.78
2022-12-07T23:53:35.104Z,5.85
2022-12-07T23:56:01.907Z,5.57
2022-12-07T23:58:28.358Z,6.50
